This is the latest recevied weather packets stored in our database for station/object WY7EM. If no packets are shown the sender has not sent any weather packets the latest 1 day(s).
| Time | Temp. | Humidity | Pressure | Rain* | Wind** | Luminosity | Snow |
|---|---|---|---|---|---|---|---|
| 1778042593 | 17.78° C | 26% | 1009.1 hPa | 0 mm | 3.58 m/s, 260° | 0 W/m² | - |
| 1778042290 | 17.78° C | 25% | 1009.3 hPa | 0 mm | 3.13 m/s, 289° | 0 W/m² | - |
| 1778041987 | 17.78° C | 25% | 1009.1 hPa | 0 mm | 3.13 m/s, 234° | 0 W/m² | - |
| 1778041686 | 17.78° C | 25% | 1009.3 hPa | 0 mm | 2.68 m/s, 262° | 0 W/m² | - |
| 1778041384 | 17.78° C | 24% | 1009.1 hPa | 0 mm | 2.68 m/s, 238° | 0 W/m² | - |
| 1778041082 | 17.78° C | 25% | 1008.9 hPa | 0 mm | 2.24 m/s, 226° | 0 W/m² | - |
| 1778040779 | 18.33° C | 24% | 1008.9 hPa | 0 mm | 2.24 m/s, 247° | 0 W/m² | - |
| 1778040476 | 18.33° C | 24% | 1009 hPa | 0 mm | 2.68 m/s, 212° | 0 W/m² | - |
| 1778040174 | 18.33° C | 24% | 1008.9 hPa | 0 mm | 2.68 m/s, 265° | 0 W/m² | - |
| 1778039870 | 18.33° C | 24% | 1008.7 hPa | 0 mm | 2.24 m/s, 334° | 0 W/m² | - |
| 1778039567 | 18.33° C | 24% | 1008.5 hPa | 0 mm | 3.13 m/s, 264° | 0 W/m² | - |
| 1778039264 | 18.33° C | 24% | 1008.7 hPa | 0 mm | 3.58 m/s, 350° | 0 W/m² | - |
| 1778038961 | 18.33° C | 24% | 1008.5 hPa | 0 mm | 5.36 m/s, 240° | 0 W/m² | - |
| 1778038658 | 18.33° C | 24% | 1008.3 hPa | 0 mm | 4.92 m/s, 230° | 0 W/m² | - |
| 1778038356 | 18.33° C | 24% | 1007.9 hPa | 0 mm | 4.47 m/s, 244° | 0 W/m² | - |
| 1778038052 | 18.33° C | 23% | 1007.9 hPa | 0 mm | 5.81 m/s, 218° | 0 W/m² | - |
| 1778037749 | 18.33° C | 23% | 1008 hPa | 0 mm | 4.47 m/s, 266° | 0 W/m² | - |
| 1778037446 | 18.89° C | 23% | 1007.6 hPa | 0 mm | 2.68 m/s, 15° | 0 W/m² | - |
| 1778037143 | 18.89° C | 23% | 1007.7 hPa | 0 mm | 3.58 m/s, 248° | 0 W/m² | - |
| 1778036841 | 18.89° C | 23% | 1007.4 hPa | 0 mm | 3.13 m/s, 209° | 0 W/m² | - |
| 1778036539 | 18.89° C | 23% | 1007.3 hPa | 0 mm | 1.79 m/s, 48° | 0 W/m² | - |
| 1778036235 | 18.89° C | 23% | 1007.3 hPa | 0 mm | 3.58 m/s, 218° | 0 W/m² | - |
| 1778035932 | 18.89° C | 23% | 1007.3 hPa | 0 mm | 2.68 m/s, 243° | 0 W/m² | - |
| 1778035629 | 18.89° C | 23% | 1007.2 hPa | 0 mm | 2.68 m/s, 305° | 0 W/m² | - |
| 1778035325 | 18.89° C | 23% | 1006.8 hPa | 0 mm | 4.02 m/s, 282° | 0 W/m² | - |
* Rain latest hour (hover to see other rain measurements)
** Current wind speed in m/s (hover to see current wind gust speed)